sensor_id;sensor_type;location;lat;lon;timestamp;P1;durP1;ratioP1;P2;durP2;ratioP2
819;SDS011;392;48.838;2.322;2022-10-26T00:00:22;4.00;;;3.70;;
819;SDS011;392;48.838;2.322;2022-10-26T00:02:50;5.13;;;3.80;;
819;SDS011;392;48.838;2.322;2022-10-26T00:05:17;4.00;;;3.80;;
819;SDS011;392;48.838;2.322;2022-10-26T00:07:44;4.77;;;4.27;;
819;SDS011;392;48.838;2.322;2022-10-26T00:10:13;3.97;;;3.60;;
819;SDS011;392;48.838;2.322;2022-10-26T00:12:40;4.33;;;3.73;;
819;SDS011;392;48.838;2.322;2022-10-26T00:15:08;4.77;;;3.53;;
819;SDS011;392;48.838;2.322;2022-10-26T00:17:35;4.13;;;3.73;;
819;SDS011;392;48.838;2.322;2022-10-26T00:20:03;5.90;;;3.60;;
819;SDS011;392;48.838;2.322;2022-10-26T00:22:31;4.27;;;3.97;;
819;SDS011;392;48.838;2.322;2022-10-26T00:24:58;3.67;;;3.30;;
819;SDS011;392;48.838;2.322;2022-10-26T00:27:27;3.70;;;3.30;;
819;SDS011;392;48.838;2.322;2022-10-26T00:29:54;5.80;;;3.47;;
819;SDS011;392;48.838;2.322;2022-10-26T00:32:21;3.80;;;3.40;;
819;SDS011;392;48.838;2.322;2022-10-26T00:34:49;3.60;;;3.30;;
819;SDS011;392;48.838;2.322;2022-10-26T00:37:16;4.33;;;3.93;;
819;SDS011;392;48.838;2.322;2022-10-26T00:39:43;4.60;;;3.60;;
819;SDS011;392;48.838;2.322;2022-10-26T00:42:11;5.10;;;3.70;;
819;SDS011;392;48.838;2.322;2022-10-26T00:44:59;3.90;;;3.60;;
819;SDS011;392;48.838;2.322;2022-10-26T00:47:33;3.30;;;3.10;;
819;SDS011;392;48.838;2.322;2022-10-26T00:50:07;4.00;;;3.70;;
819;SDS011;392;48.838;2.322;2022-10-26T00:52:37;3.73;;;3.43;;
819;SDS011;392;48.838;2.322;2022-10-26T00:55:05;3.70;;;3.50;;
819;SDS011;392;48.838;2.322;2022-10-26T00:57:34;4.37;;;4.00;;
819;SDS011;392;48.838;2.322;2022-10-26T01:00:05;3.30;;;3.00;;
819;SDS011;392;48.838;2.322;2022-10-26T01:02:34;3.77;;;3.50;;
819;SDS011;392;48.838;2.322;2022-10-26T01:05:02;4.33;;;3.83;;
819;SDS011;392;48.838;2.322;2022-10-26T01:07:31;3.60;;;3.40;;
819;SDS011;392;48.838;2.322;2022-10-26T01:09:59;4.73;;;3.50;;
819;SDS011;392;48.838;2.322;2022-10-26T01:12:27;3.47;;;3.27;;
819;SDS011;392;48.838;2.322;2022-10-26T01:14:54;5.67;;;3.23;;
819;SDS011;392;48.838;2.322;2022-10-26T01:17:26;4.73;;;4.33;;
819;SDS011;392;48.838;2.322;2022-10-26T01:20:13;4.40;;;4.10;;
819;SDS011;392;48.838;2.322;2022-10-26T01:23:12;6.10;;;4.90;;
819;SDS011;392;48.838;2.322;2022-10-26T01:25:55;6.60;;;5.60;;
819;SDS011;392;48.838;2.322;2022-10-26T01:28:50;5.77;;;5.00;;
819;SDS011;392;48.838;2.322;2022-10-26T01:31:46;7.87;;;6.43;;
819;SDS011;392;48.838;2.322;2022-10-26T01:34:23;6.60;;;6.00;;
819;SDS011;392;48.838;2.322;2022-10-26T01:36:59;7.30;;;6.60;;
819;SDS011;392;48.838;2.322;2022-10-26T01:39:34;6.87;;;6.17;;
819;SDS011;392;48.838;2.322;2022-10-26T01:42:04;7.20;;;6.40;;
819;SDS011;392;48.838;2.322;2022-10-26T01:44:35;6.50;;;5.90;;
819;SDS011;392;48.838;2.322;2022-10-26T01:47:08;6.37;;;5.80;;
819;SDS011;392;48.838;2.322;2022-10-26T01:49:40;8.13;;;6.00;;
819;SDS011;392;48.838;2.322;2022-10-26T01:52:12;6.80;;;6.17;;
819;SDS011;392;48.838;2.322;2022-10-26T01:54:39;6.83;;;5.50;;
819;SDS011;392;48.838;2.322;2022-10-26T01:57:08;9.17;;;5.60;;
819;SDS011;392;48.838;2.322;2022-10-26T01:59:42;6.30;;;5.80;;
819;SDS011;392;48.838;2.322;2022-10-26T02:05:40;5.40;;;4.50;;
819;SDS011;392;48.838;2.322;2022-10-26T02:08:25;5.70;;;5.20;;
819;SDS011;392;48.838;2.322;2022-10-26T02:11:08;4.70;;;4.30;;
819;SDS011;392;48.838;2.322;2022-10-26T02:13:46;4.87;;;4.57;;
819;SDS011;392;48.838;2.322;2022-10-26T02:16:20;4.50;;;4.10;;
819;SDS011;392;48.838;2.322;2022-10-26T02:18:55;5.50;;;4.07;;
819;SDS011;392;48.838;2.322;2022-10-26T02:21:29;4.47;;;4.00;;
819;SDS011;392;48.838;2.322;2022-10-26T02:24:02;6.63;;;3.90;;
819;SDS011;392;48.838;2.322;2022-10-26T02:26:33;4.53;;;3.90;;
819;SDS011;392;48.838;2.322;2022-10-26T02:29:03;4.13;;;3.70;;
819;SDS011;392;48.838;2.322;2022-10-26T02:31:35;4.07;;;3.67;;
819;SDS011;392;48.838;2.322;2022-10-26T02:34:06;4.23;;;3.80;;
819;SDS011;392;48.838;2.322;2022-10-26T02:36:38;3.47;;;3.27;;
819;SDS011;392;48.838;2.322;2022-10-26T02:39:10;4.77;;;3.60;;
819;SDS011;392;48.838;2.322;2022-10-26T02:41:40;5.10;;;3.40;;
819;SDS011;392;48.838;2.322;2022-10-26T02:44:12;3.87;;;3.57;;
819;SDS011;392;48.838;2.322;2022-10-26T02:46:44;3.83;;;3.53;;
819;SDS011;392;48.838;2.322;2022-10-26T02:49:13;3.57;;;3.07;;
819;SDS011;392;48.838;2.322;2022-10-26T02:51:42;3.37;;;3.07;;
819;SDS011;392;48.838;2.322;2022-10-26T02:54:14;4.80;;;3.33;;
819;SDS011;392;48.838;2.322;2022-10-26T02:56:50;3.97;;;3.10;;
819;SDS011;392;48.838;2.322;2022-10-26T02:59:22;3.67;;;3.03;;
819;SDS011;392;48.838;2.322;2022-10-26T03:01:55;5.00;;;3.40;;
819;SDS011;392;48.838;2.322;2022-10-26T03:04:28;3.20;;;2.93;;
819;SDS011;392;48.838;2.322;2022-10-26T03:06:56;7.77;;;3.30;;
819;SDS011;392;48.838;2.322;2022-10-26T03:09:24;3.60;;;3.30;;
819;SDS011;392;48.838;2.322;2022-10-26T03:11:52;5.57;;;3.27;;
819;SDS011;392;48.838;2.322;2022-10-26T03:14:19;10.30;;;3.57;;
819;SDS011;392;48.838;2.322;2022-10-26T03:16:47;3.93;;;3.23;;
819;SDS011;392;48.838;2.322;2022-10-26T03:19:14;7.23;;;3.57;;
819;SDS011;392;48.838;2.322;2022-10-26T03:21:43;3.40;;;3.10;;
819;SDS011;392;48.838;2.322;2022-10-26T03:24:10;4.70;;;3.53;;
819;SDS011;392;48.838;2.322;2022-10-26T03:26:38;3.37;;;3.07;;
819;SDS011;392;48.838;2.322;2022-10-26T03:29:05;3.50;;;3.23;;
819;SDS011;392;48.838;2.322;2022-10-26T03:31:33;3.60;;;3.27;;
819;SDS011;392;48.838;2.322;2022-10-26T03:34:00;3.70;;;3.40;;
819;SDS011;392;48.838;2.322;2022-10-26T03:36:27;3.30;;;3.00;;
819;SDS011;392;48.838;2.322;2022-10-26T03:38:56;4.77;;;3.00;;
819;SDS011;392;48.838;2.322;2022-10-26T03:41:23;3.60;;;3.30;;
819;SDS011;392;48.838;2.322;2022-10-26T03:43:51;5.00;;;3.20;;
819;SDS011;392;48.838;2.322;2022-10-26T03:46:19;4.10;;;3.20;;
819;SDS011;392;48.838;2.322;2022-10-26T03:48:46;2.90;;;2.70;;
819;SDS011;392;48.838;2.322;2022-10-26T03:51:13;3.53;;;2.60;;
819;SDS011;392;48.838;2.322;2022-10-26T03:53:40;3.27;;;3.00;;
819;SDS011;392;48.838;2.322;2022-10-26T03:56:09;2.90;;;2.73;;
819;SDS011;392;48.838;2.322;2022-10-26T03:58:36;4.37;;;2.90;;
819;SDS011;392;48.838;2.322;2022-10-26T04:01:04;4.73;;;3.10;;
819;SDS011;392;48.838;2.322;2022-10-26T04:03:31;5.23;;;2.60;;
819;SDS011;392;48.838;2.322;2022-10-26T04:05:59;3.83;;;3.10;;
819;SDS011;392;48.838;2.322;2022-10-26T04:08:26;3.10;;;2.80;;
819;SDS011;392;48.838;2.322;2022-10-26T04:10:54;3.10;;;2.80;;
819;SDS011;392;48.838;2.322;2022-10-26T04:13:22;3.00;;;2.70;;
819;SDS011;392;48.838;2.322;2022-10-26T04:15:50;3.10;;;2.90;;
819;SDS011;392;48.838;2.322;2022-10-26T04:18:17;2.90;;;2.70;;
819;SDS011;392;48.838;2.322;2022-10-26T04:20:44;3.80;;;3.40;;
819;SDS011;392;48.838;2.322;2022-10-26T04:23:12;3.43;;;3.17;;
819;SDS011;392;48.838;2.322;2022-10-26T04:25:41;3.60;;;2.60;;
819;SDS011;392;48.838;2.322;2022-10-26T04:28:09;3.90;;;3.47;;
819;SDS011;392;48.838;2.322;2022-10-26T04:30:40;3.37;;;3.00;;
819;SDS011;392;48.838;2.322;2022-10-26T04:33:07;3.93;;;2.80;;
819;SDS011;392;48.838;2.322;2022-10-26T04:35:34;4.67;;;2.87;;
819;SDS011;392;48.838;2.322;2022-10-26T04:38:02;3.43;;;3.20;;
819;SDS011;392;48.838;2.322;2022-10-26T04:40:32;3.20;;;2.90;;
819;SDS011;392;48.838;2.322;2022-10-26T04:43:00;4.30;;;3.03;;
819;SDS011;392;48.838;2.322;2022-10-26T04:45:28;3.10;;;2.90;;
819;SDS011;392;48.838;2.322;2022-10-26T04:48:01;4.73;;;3.17;;
819;SDS011;392;48.838;2.322;2022-10-26T04:50:31;4.00;;;3.60;;
819;SDS011;392;48.838;2.322;2022-10-26T04:53:02;3.20;;;2.80;;
819;SDS011;392;48.838;2.322;2022-10-26T04:55:29;4.23;;;3.47;;
819;SDS011;392;48.838;2.322;2022-10-26T04:57:57;3.50;;;3.20;;
819;SDS011;392;48.838;2.322;2022-10-26T05:00:24;4.07;;;3.73;;
819;SDS011;392;48.838;2.322;2022-10-26T05:02:57;3.23;;;2.93;;
819;SDS011;392;48.838;2.322;2022-10-26T05:05:27;4.60;;;3.10;;
819;SDS011;392;48.838;2.322;2022-10-26T05:07:56;3.67;;;3.37;;
819;SDS011;392;48.838;2.322;2022-10-26T05:10:23;5.20;;;3.07;;
819;SDS011;392;48.838;2.322;2022-10-26T05:12:52;3.87;;;3.33;;
819;SDS011;392;48.838;2.322;2022-10-26T05:15:20;3.73;;;3.37;;
819;SDS011;392;48.838;2.322;2022-10-26T05:17:53;4.30;;;3.33;;
819;SDS011;392;48.838;2.322;2022-10-26T05:20:21;3.60;;;3.20;;
819;SDS011;392;48.838;2.322;2022-10-26T05:22:55;4.90;;;3.30;;
819;SDS011;392;48.838;2.322;2022-10-26T05:25:23;4.20;;;3.50;;
819;SDS011;392;48.838;2.322;2022-10-26T05:27:50;7.77;;;3.47;;
819;SDS011;392;48.838;2.322;2022-10-26T05:30:18;4.03;;;3.43;;
819;SDS011;392;48.838;2.322;2022-10-26T05:32:51;3.87;;;3.00;;
819;SDS011;392;48.838;2.322;2022-10-26T05:35:19;4.10;;;3.40;;
819;SDS011;392;48.838;2.322;2022-10-26T05:37:47;4.73;;;4.17;;
819;SDS011;392;48.838;2.322;2022-10-26T05:40:15;4.67;;;3.60;;
819;SDS011;392;48.838;2.322;2022-10-26T05:42:43;4.50;;;3.50;;
819;SDS011;392;48.838;2.322;2022-10-26T05:45:11;5.83;;;3.73;;
819;SDS011;392;48.838;2.322;2022-10-26T05:47:39;4.90;;;4.40;;
819;SDS011;392;48.838;2.322;2022-10-26T05:50:07;4.10;;;3.70;;
819;SDS011;392;48.838;2.322;2022-10-26T05:52:37;4.03;;;3.57;;
819;SDS011;392;48.838;2.322;2022-10-26T05:55:05;4.83;;;3.43;;
819;SDS011;392;48.838;2.322;2022-10-26T05:57:36;3.60;;;3.30;;
819;SDS011;392;48.838;2.322;2022-10-26T06:00:06;4.87;;;3.50;;
819;SDS011;392;48.838;2.322;2022-10-26T06:02:40;5.87;;;4.20;;
819;SDS011;392;48.838;2.322;2022-10-26T06:05:21;7.30;;;3.80;;
819;SDS011;392;48.838;2.322;2022-10-26T06:07:53;4.30;;;3.90;;
819;SDS011;392;48.838;2.322;2022-10-26T06:10:21;4.10;;;3.70;;
819;SDS011;392;48.838;2.322;2022-10-26T06:12:51;4.20;;;3.80;;
819;SDS011;392;48.838;2.322;2022-10-26T06:15:20;4.10;;;3.20;;
819;SDS011;392;48.838;2.322;2022-10-26T06:17:51;4.00;;;3.60;;
819;SDS011;392;48.838;2.322;2022-10-26T06:20:34;7.00;;;4.23;;
819;SDS011;392;48.838;2.322;2022-10-26T06:26:08;6.57;;;3.73;;
819;SDS011;392;48.838;2.322;2022-10-26T06:28:51;4.60;;;3.73;;
819;SDS011;392;48.838;2.322;2022-10-26T06:31:28;5.70;;;2.80;;
819;SDS011;392;48.838;2.322;2022-10-26T06:33:57;3.70;;;3.30;;
819;SDS011;392;48.838;2.322;2022-10-26T06:36:26;3.70;;;3.40;;
819;SDS011;392;48.838;2.322;2022-10-26T06:38:55;6.57;;;3.63;;
819;SDS011;392;48.838;2.322;2022-10-26T06:41:27;3.90;;;3.47;;
819;SDS011;392;48.838;2.322;2022-10-26T06:43:59;3.63;;;3.43;;
819;SDS011;392;48.838;2.322;2022-10-26T06:46:33;5.87;;;3.43;;
819;SDS011;392;48.838;2.322;2022-10-26T06:49:07;6.37;;;3.90;;
819;SDS011;392;48.838;2.322;2022-10-26T06:51:45;5.67;;;3.70;;
819;SDS011;392;48.838;2.322;2022-10-26T06:54:19;4.40;;;3.77;;
819;SDS011;392;48.838;2.322;2022-10-26T06:56:52;5.00;;;4.50;;
819;SDS011;392;48.838;2.322;2022-10-26T06:59:24;6.60;;;4.20;;
819;SDS011;392;48.838;2.322;2022-10-26T07:01:59;11.10;;;5.57;;
819;SDS011;392;48.838;2.322;2022-10-26T07:04:28;20.87;;;7.60;;
819;SDS011;392;48.838;2.322;2022-10-26T07:06:55;11.93;;;6.50;;
819;SDS011;392;48.838;2.322;2022-10-26T07:09:23;13.10;;;6.00;;
819;SDS011;392;48.838;2.322;2022-10-26T07:11:50;8.37;;;6.73;;
819;SDS011;392;48.838;2.322;2022-10-26T07:14:18;7.30;;;5.90;;
819;SDS011;392;48.838;2.322;2022-10-26T07:16:46;6.10;;;4.50;;
819;SDS011;392;48.838;2.322;2022-10-26T07:19:13;6.30;;;3.60;;
819;SDS011;392;48.838;2.322;2022-10-26T07:21:41;5.20;;;3.27;;
819;SDS011;392;48.838;2.322;2022-10-26T07:24:09;5.03;;;3.87;;
819;SDS011;392;48.838;2.322;2022-10-26T07:26:36;4.23;;;3.63;;
819;SDS011;392;48.838;2.322;2022-10-26T07:29:04;4.73;;;3.77;;
819;SDS011;392;48.838;2.322;2022-10-26T07:31:31;5.63;;;3.97;;
819;SDS011;392;48.838;2.322;2022-10-26T07:34:00;6.17;;;4.43;;
819;SDS011;392;48.838;2.322;2022-10-26T07:36:27;5.43;;;4.20;;
819;SDS011;392;48.838;2.322;2022-10-26T07:38:55;5.67;;;4.30;;
819;SDS011;392;48.838;2.322;2022-10-26T07:41:22;8.07;;;5.07;;
819;SDS011;392;48.838;2.322;2022-10-26T07:43:49;5.50;;;4.80;;
819;SDS011;392;48.838;2.322;2022-10-26T07:46:16;5.40;;;4.40;;
819;SDS011;392;48.838;2.322;2022-10-26T07:48:44;7.57;;;4.53;;
819;SDS011;392;48.838;2.322;2022-10-26T07:51:14;6.57;;;4.33;;
819;SDS011;392;48.838;2.322;2022-10-26T07:53:41;7.97;;;5.00;;
819;SDS011;392;48.838;2.322;2022-10-26T07:56:09;6.03;;;3.97;;
819;SDS011;392;48.838;2.322;2022-10-26T07:58:36;4.73;;;4.00;;
819;SDS011;392;48.838;2.322;2022-10-26T08:01:04;10.90;;;3.83;;
819;SDS011;392;48.838;2.322;2022-10-26T08:03:33;7.87;;;4.70;;
819;SDS011;392;48.838;2.322;2022-10-26T08:06:00;9.97;;;4.50;;
819;SDS011;392;48.838;2.322;2022-10-26T08:08:30;4.80;;;4.17;;
819;SDS011;392;48.838;2.322;2022-10-26T08:10:58;9.87;;;4.67;;
819;SDS011;392;48.838;2.322;2022-10-26T08:13:26;6.73;;;4.27;;
819;SDS011;392;48.838;2.322;2022-10-26T08:15:55;5.83;;;4.30;;
819;SDS011;392;48.838;2.322;2022-10-26T08:18:23;5.50;;;4.37;;
819;SDS011;392;48.838;2.322;2022-10-26T08:20:50;6.60;;;3.97;;
819;SDS011;392;48.838;2.322;2022-10-26T08:23:18;7.23;;;4.20;;
819;SDS011;392;48.838;2.322;2022-10-26T08:25:47;4.03;;;3.47;;
819;SDS011;392;48.838;2.322;2022-10-26T08:28:14;7.30;;;4.10;;
819;SDS011;392;48.838;2.322;2022-10-26T08:30:41;6.40;;;4.40;;
819;SDS011;392;48.838;2.322;2022-10-26T08:33:08;4.07;;;3.70;;
819;SDS011;392;48.838;2.322;2022-10-26T08:35:36;8.97;;;4.33;;
819;SDS011;392;48.838;2.322;2022-10-26T08:38:03;5.40;;;4.00;;
819;SDS011;392;48.838;2.322;2022-10-26T08:40:31;4.47;;;3.90;;
819;SDS011;392;48.838;2.322;2022-10-26T08:43:04;4.67;;;3.60;;
819;SDS011;392;48.838;2.322;2022-10-26T08:45:45;8.07;;;4.30;;
819;SDS011;392;48.838;2.322;2022-10-26T08:48:17;7.43;;;3.73;;
819;SDS011;392;48.838;2.322;2022-10-26T08:50:50;6.57;;;3.97;;
819;SDS011;392;48.838;2.322;2022-10-26T08:53:21;5.93;;;3.73;;
819;SDS011;392;48.838;2.322;2022-10-26T08:55:56;6.70;;;3.73;;
819;SDS011;392;48.838;2.322;2022-10-26T08:58:31;5.10;;;3.87;;
819;SDS011;392;48.838;2.322;2022-10-26T09:01:04;6.37;;;3.93;;
819;SDS011;392;48.838;2.322;2022-10-26T09:03:32;7.67;;;4.13;;
819;SDS011;392;48.838;2.322;2022-10-26T09:06:06;5.63;;;4.10;;
819;SDS011;392;48.838;2.322;2022-10-26T09:08:49;4.00;;;3.60;;
819;SDS011;392;48.838;2.322;2022-10-26T09:11:27;4.43;;;3.67;;
819;SDS011;392;48.838;2.322;2022-10-26T09:14:11;5.80;;;4.20;;
819;SDS011;392;48.838;2.322;2022-10-26T09:16:47;4.10;;;3.70;;
819;SDS011;392;48.838;2.322;2022-10-26T09:19:29;4.77;;;2.93;;
819;SDS011;392;48.838;2.322;2022-10-26T09:22:14;5.57;;;3.20;;
819;SDS011;392;48.838;2.322;2022-10-26T09:24:48;4.73;;;3.00;;
819;SDS011;392;48.838;2.322;2022-10-26T09:27:22;5.80;;;3.07;;
819;SDS011;392;48.838;2.322;2022-10-26T09:29:54;3.60;;;3.40;;
819;SDS011;392;48.838;2.322;2022-10-26T09:32:28;5.87;;;2.73;;
819;SDS011;392;48.838;2.322;2022-10-26T09:35:03;5.00;;;3.27;;
819;SDS011;392;48.838;2.322;2022-10-26T09:37:39;4.20;;;3.40;;
819;SDS011;392;48.838;2.322;2022-10-26T09:40:14;9.33;;;3.30;;
819;SDS011;392;48.838;2.322;2022-10-26T09:42:49;3.93;;;3.37;;
819;SDS011;392;48.838;2.322;2022-10-26T09:45:24;12.50;;;5.40;;
819;SDS011;392;48.838;2.322;2022-10-26T09:47:58;15.83;;;6.60;;
819;SDS011;392;48.838;2.322;2022-10-26T09:50:32;4.60;;;3.17;;
819;SDS011;392;48.838;2.322;2022-10-26T09:53:02;7.40;;;3.93;;
819;SDS011;392;48.838;2.322;2022-10-26T09:55:30;7.63;;;5.00;;
819;SDS011;392;48.838;2.322;2022-10-26T09:58:01;9.17;;;3.90;;
819;SDS011;392;48.838;2.322;2022-10-26T10:00:33;7.53;;;4.17;;
819;SDS011;392;48.838;2.322;2022-10-26T10:03:00;4.80;;;3.00;;
819;SDS011;392;48.838;2.322;2022-10-26T10:05:29;7.40;;;3.60;;
819;SDS011;392;48.838;2.322;2022-10-26T10:08:08;4.97;;;3.00;;
819;SDS011;392;48.838;2.322;2022-10-26T10:10:51;6.07;;;4.50;;
819;SDS011;392;48.838;2.322;2022-10-26T10:13:22;4.00;;;3.00;;
819;SDS011;392;48.838;2.322;2022-10-26T10:15:53;5.20;;;3.60;;
819;SDS011;392;48.838;2.322;2022-10-26T10:18:29;4.97;;;3.43;;
819;SDS011;392;48.838;2.322;2022-10-26T10:20:57;3.40;;;3.10;;
819;SDS011;392;48.838;2.322;2022-10-26T10:23:27;4.53;;;3.43;;
819;SDS011;392;48.838;2.322;2022-10-26T10:25:57;5.90;;;3.20;;
819;SDS011;392;48.838;2.322;2022-10-26T10:28:32;4.80;;;2.77;;
819;SDS011;392;48.838;2.322;2022-10-26T10:31:02;4.47;;;2.83;;
819;SDS011;392;48.838;2.322;2022-10-26T10:33:32;3.27;;;2.60;;
819;SDS011;392;48.838;2.322;2022-10-26T10:36:05;2.93;;;2.73;;
819;SDS011;392;48.838;2.322;2022-10-26T10:38:36;3.33;;;3.03;;
819;SDS011;392;48.838;2.322;2022-10-26T10:41:13;3.43;;;2.73;;
819;SDS011;392;48.838;2.322;2022-10-26T10:43:44;2.97;;;2.60;;
819;SDS011;392;48.838;2.322;2022-10-26T10:46:20;5.23;;;3.27;;
819;SDS011;392;48.838;2.322;2022-10-26T10:48:53;3.70;;;3.40;;
819;SDS011;392;48.838;2.322;2022-10-26T10:51:29;5.27;;;2.73;;
819;SDS011;392;48.838;2.322;2022-10-26T10:54:02;5.63;;;3.07;;
819;SDS011;392;48.838;2.322;2022-10-26T10:56:36;4.13;;;3.00;;
819;SDS011;392;48.838;2.322;2022-10-26T10:59:21;3.53;;;2.90;;
819;SDS011;392;48.838;2.322;2022-10-26T11:02:10;4.57;;;2.77;;
819;SDS011;392;48.838;2.322;2022-10-26T11:04:59;3.83;;;3.07;;
819;SDS011;392;48.838;2.322;2022-10-26T11:07:51;6.73;;;4.23;;
819;SDS011;392;48.838;2.322;2022-10-26T11:10:24;3.97;;;3.53;;
819;SDS011;392;48.838;2.322;2022-10-26T11:13:02;5.20;;;3.90;;
819;SDS011;392;48.838;2.322;2022-10-26T11:15:38;4.60;;;3.77;;
819;SDS011;392;48.838;2.322;2022-10-26T11:18:11;3.70;;;2.60;;
819;SDS011;392;48.838;2.322;2022-10-26T11:20:44;3.80;;;2.77;;
819;SDS011;392;48.838;2.322;2022-10-26T11:23:18;2.97;;;2.77;;
819;SDS011;392;48.838;2.322;2022-10-26T11:25:52;5.33;;;3.90;;
819;SDS011;392;48.838;2.322;2022-10-26T11:28:30;3.43;;;3.13;;
819;SDS011;392;48.838;2.322;2022-10-26T11:31:06;3.83;;;3.53;;
819;SDS011;392;48.838;2.322;2022-10-26T11:33:41;3.53;;;2.60;;
819;SDS011;392;48.838;2.322;2022-10-26T11:36:13;5.13;;;2.67;;
819;SDS011;392;48.838;2.322;2022-10-26T11:38:44;3.00;;;2.60;;
819;SDS011;392;48.838;2.322;2022-10-26T11:41:17;3.77;;;3.30;;
819;SDS011;392;48.838;2.322;2022-10-26T11:43:49;4.03;;;3.00;;
819;SDS011;392;48.838;2.322;2022-10-26T11:46:22;3.33;;;2.93;;
819;SDS011;392;48.838;2.322;2022-10-26T11:48:57;4.20;;;2.53;;
819;SDS011;392;48.838;2.322;2022-10-26T11:51:32;3.73;;;3.10;;
819;SDS011;392;48.838;2.322;2022-10-26T11:54:07;3.50;;;2.90;;
819;SDS011;392;48.838;2.322;2022-10-26T11:56:40;4.73;;;2.87;;
819;SDS011;392;48.838;2.322;2022-10-26T11:59:14;5.07;;;2.90;;
819;SDS011;392;48.838;2.322;2022-10-26T12:01:46;3.30;;;2.80;;
819;SDS011;392;48.838;2.322;2022-10-26T12:04:17;3.77;;;3.47;;
819;SDS011;392;48.838;2.322;2022-10-26T12:06:47;3.33;;;2.70;;
819;SDS011;392;48.838;2.322;2022-10-26T12:09:19;4.77;;;2.47;;
819;SDS011;392;48.838;2.322;2022-10-26T12:11:51;2.70;;;2.60;;
819;SDS011;392;48.838;2.322;2022-10-26T12:14:26;6.93;;;6.30;;
819;SDS011;392;48.838;2.322;2022-10-26T12:17:01;4.10;;;3.40;;
819;SDS011;392;48.838;2.322;2022-10-26T12:19:38;2.93;;;2.73;;
819;SDS011;392;48.838;2.322;2022-10-26T12:22:13;3.73;;;2.77;;
819;SDS011;392;48.838;2.322;2022-10-26T12:24:44;3.33;;;2.80;;
819;SDS011;392;48.838;2.322;2022-10-26T12:27:29;4.07;;;3.07;;
819;SDS011;392;48.838;2.322;2022-10-26T12:30:21;4.00;;;2.87;;
819;SDS011;392;48.838;2.322;2022-10-26T12:32:52;2.80;;;2.60;;
819;SDS011;392;48.838;2.322;2022-10-26T12:35:36;4.33;;;3.60;;
819;SDS011;392;48.838;2.322;2022-10-26T12:41:25;2.00;;;1.90;;
819;SDS011;392;48.838;2.322;2022-10-26T12:43:54;2.77;;;2.60;;
819;SDS011;392;48.838;2.322;2022-10-26T12:52:30;4.20;;;3.90;;
819;SDS011;392;48.838;2.322;2022-10-26T13:05:06;3.80;;;3.50;;
819;SDS011;392;48.838;2.322;2022-10-26T13:08:01;4.40;;;4.10;;
819;SDS011;392;48.838;2.322;2022-10-26T13:10:30;5.13;;;3.63;;
819;SDS011;392;48.838;2.322;2022-10-26T13:12:59;4.53;;;4.17;;
819;SDS011;392;48.838;2.322;2022-10-26T13:15:30;6.03;;;5.53;;
819;SDS011;392;48.838;2.322;2022-10-26T13:18:06;5.07;;;4.77;;
819;SDS011;392;48.838;2.322;2022-10-26T13:20:50;4.50;;;4.30;;
819;SDS011;392;48.838;2.322;2022-10-26T13:23:22;4.93;;;4.63;;
819;SDS011;392;48.838;2.322;2022-10-26T13:26:02;4.30;;;4.10;;
819;SDS011;392;48.838;2.322;2022-10-26T13:28:41;6.63;;;6.23;;
819;SDS011;392;48.838;2.322;2022-10-26T13:31:15;5.23;;;4.53;;
819;SDS011;392;48.838;2.322;2022-10-26T13:34:20;4.60;;;4.40;;
819;SDS011;392;48.838;2.322;2022-10-26T13:36:52;4.97;;;4.43;;
819;SDS011;392;48.838;2.322;2022-10-26T13:39:34;4.77;;;4.37;;
819;SDS011;392;48.838;2.322;2022-10-26T13:42:04;5.00;;;4.70;;
819;SDS011;392;48.838;2.322;2022-10-26T13:44:35;5.00;;;4.70;;
819;SDS011;392;48.838;2.322;2022-10-26T13:47:09;4.53;;;4.33;;
819;SDS011;392;48.838;2.322;2022-10-26T13:49:42;4.33;;;4.03;;
819;SDS011;392;48.838;2.322;2022-10-26T13:52:13;4.10;;;3.90;;
819;SDS011;392;48.838;2.322;2022-10-26T13:54:47;4.30;;;4.10;;
819;SDS011;392;48.838;2.322;2022-10-26T13:57:21;4.03;;;3.83;;
819;SDS011;392;48.838;2.322;2022-10-26T13:59:54;4.77;;;4.40;;
819;SDS011;392;48.838;2.322;2022-10-26T14:02:25;5.20;;;4.70;;
819;SDS011;392;48.838;2.322;2022-10-26T14:04:58;3.87;;;3.67;;
819;SDS011;392;48.838;2.322;2022-10-26T14:07:30;4.53;;;4.23;;
819;SDS011;392;48.838;2.322;2022-10-26T14:10:04;4.40;;;4.10;;
819;SDS011;392;48.838;2.322;2022-10-26T14:12:35;4.30;;;4.00;;
819;SDS011;392;48.838;2.322;2022-10-26T14:15:05;3.83;;;3.53;;
819;SDS011;392;48.838;2.322;2022-10-26T14:17:35;4.07;;;3.77;;
819;SDS011;392;48.838;2.322;2022-10-26T14:20:02;5.50;;;3.23;;
819;SDS011;392;48.838;2.322;2022-10-26T14:22:31;4.10;;;3.80;;
819;SDS011;392;48.838;2.322;2022-10-26T14:24:59;8.53;;;3.43;;
819;SDS011;392;48.838;2.322;2022-10-26T14:27:31;6.10;;;3.00;;
819;SDS011;392;48.838;2.322;2022-10-26T14:30:18;4.97;;;3.67;;
819;SDS011;392;48.838;2.322;2022-10-26T14:32:48;3.93;;;3.47;;
819;SDS011;392;48.838;2.322;2022-10-26T14:35:16;3.33;;;3.07;;
819;SDS011;392;48.838;2.322;2022-10-26T14:37:48;3.37;;;2.93;;
819;SDS011;392;48.838;2.322;2022-10-26T14:40:19;3.70;;;3.03;;
819;SDS011;392;48.838;2.322;2022-10-26T14:42:52;3.77;;;3.40;;
819;SDS011;392;48.838;2.322;2022-10-26T14:45:23;2.50;;;2.30;;
819;SDS011;392;48.838;2.322;2022-10-26T14:47:55;2.50;;;2.30;;
819;SDS011;392;48.838;2.322;2022-10-26T14:50:24;3.50;;;2.70;;
819;SDS011;392;48.838;2.322;2022-10-26T14:52:56;3.20;;;2.43;;
819;SDS011;392;48.838;2.322;2022-10-26T14:55:27;2.53;;;2.33;;
819;SDS011;392;48.838;2.322;2022-10-26T14:58:16;4.10;;;2.90;;
819;SDS011;392;48.838;2.322;2022-10-26T15:03:40;1.97;;;1.87;;
819;SDS011;392;48.838;2.322;2022-10-26T15:11:58;3.50;;;3.20;;
819;SDS011;392;48.838;2.322;2022-10-26T15:14:29;2.93;;;2.63;;
819;SDS011;392;48.838;2.322;2022-10-26T15:16:57;3.60;;;2.87;;
819;SDS011;392;48.838;2.322;2022-10-26T15:19:25;4.13;;;2.40;;
819;SDS011;392;48.838;2.322;2022-10-26T15:21:54;2.37;;;2.17;;
819;SDS011;392;48.838;2.322;2022-10-26T15:24:25;4.00;;;2.97;;
819;SDS011;392;48.838;2.322;2022-10-26T15:26:59;2.67;;;2.43;;
819;SDS011;392;48.838;2.322;2022-10-26T15:29:38;2.07;;;1.90;;
819;SDS011;392;48.838;2.322;2022-10-26T15:32:17;2.57;;;2.37;;
819;SDS011;392;48.838;2.322;2022-10-26T15:35:13;2.30;;;2.20;;
819;SDS011;392;48.838;2.322;2022-10-26T15:37:49;3.33;;;2.50;;
819;SDS011;392;48.838;2.322;2022-10-26T15:40:18;2.53;;;2.23;;
819;SDS011;392;48.838;2.322;2022-10-26T15:42:46;3.40;;;2.40;;
819;SDS011;392;48.838;2.322;2022-10-26T15:45:19;3.20;;;2.13;;
819;SDS011;392;48.838;2.322;2022-10-26T15:47:48;2.57;;;2.37;;
819;SDS011;392;48.838;2.322;2022-10-26T15:50:18;3.57;;;2.40;;
819;SDS011;392;48.838;2.322;2022-10-26T15:52:47;2.83;;;2.37;;
819;SDS011;392;48.838;2.322;2022-10-26T15:55:15;3.20;;;3.00;;
819;SDS011;392;48.838;2.322;2022-10-26T15:57:42;2.90;;;2.57;;
819;SDS011;392;48.838;2.322;2022-10-26T16:00:13;3.70;;;2.87;;
819;SDS011;392;48.838;2.322;2022-10-26T16:02:45;2.80;;;2.60;;
819;SDS011;392;48.838;2.322;2022-10-26T16:05:12;4.50;;;4.10;;
819;SDS011;392;48.838;2.322;2022-10-26T16:07:43;3.33;;;3.03;;
819;SDS011;392;48.838;2.322;2022-10-26T16:10:13;4.50;;;4.10;;
819;SDS011;392;48.838;2.322;2022-10-26T16:12:46;4.13;;;3.30;;
819;SDS011;392;48.838;2.322;2022-10-26T16:15:15;3.73;;;2.87;;
819;SDS011;392;48.838;2.322;2022-10-26T16:17:50;4.53;;;3.70;;
819;SDS011;392;48.838;2.322;2022-10-26T16:20:22;5.47;;;3.03;;
819;SDS011;392;48.838;2.322;2022-10-26T16:22:52;2.43;;;2.23;;
819;SDS011;392;48.838;2.322;2022-10-26T16:25:20;3.10;;;2.90;;
819;SDS011;392;48.838;2.322;2022-10-26T16:27:50;5.80;;;3.30;;
819;SDS011;392;48.838;2.322;2022-10-26T16:30:20;5.57;;;3.70;;
819;SDS011;392;48.838;2.322;2022-10-26T16:32:49;3.73;;;3.10;;
819;SDS011;392;48.838;2.322;2022-10-26T16:35:17;3.40;;;3.10;;
819;SDS011;392;48.838;2.322;2022-10-26T16:37:44;5.93;;;4.17;;
819;SDS011;392;48.838;2.322;2022-10-26T16:40:11;6.37;;;4.70;;
819;SDS011;392;48.838;2.322;2022-10-26T16:42:39;4.87;;;3.70;;
819;SDS011;392;48.838;2.322;2022-10-26T16:45:08;5.03;;;4.30;;
819;SDS011;392;48.838;2.322;2022-10-26T16:47:36;4.63;;;3.20;;